Sydney, Canada
Current Conditions -  °F | °C
As of 3:00 AM on Friday 28 Nov 2014 (Local Time) from CYQY Reporting Station
Light Snow Light Snow  
Wind Chill: 23°   Ceiling: 2500
Heat Index: 32°   Visibility: 10mi
Dew Point: 23°   Wind: 12mph
Humidity: 69%   Direction: 340°NNW
Pressure: 29.86"   Gusts: NA
Location:  46.14°N, 60.2°W
Report Text: CYQY 280700Z 34010KT 10SM -SN BKN025 OVC035 M00/M05 A2986 RMK SC6SC2 SLP112
Loading
Personal Weather Stations






























Interactive Weather Map New forecast layout! Learn more

10-Day Weather Forecast

Advertisements
Track Severe Weather on mobile